sensor_id;sensor_type;location;lat;lon;timestamp;P1;durP1;ratioP1;P2;durP2;ratioP2
18776;SDS011;9517;51.174;4.160;2023-06-26T00:01:31;9.93;;;3.73;;
18776;SDS011;9517;51.174;4.160;2023-06-26T00:03:59;10.90;;;4.20;;
18776;SDS011;9517;51.174;4.160;2023-06-26T00:06:26;10.87;;;4.07;;
18776;SDS011;9517;51.174;4.160;2023-06-26T00:08:54;9.90;;;3.90;;
18776;SDS011;9517;51.174;4.160;2023-06-26T00:11:24;13.67;;;4.33;;
18776;SDS011;9517;51.174;4.160;2023-06-26T00:13:52;11.47;;;4.10;;
18776;SDS011;9517;51.174;4.160;2023-06-26T00:16:21;11.70;;;4.63;;
18776;SDS011;9517;51.174;4.160;2023-06-26T00:18:48;14.83;;;4.60;;
18776;SDS011;9517;51.174;4.160;2023-06-26T00:21:15;12.43;;;4.67;;
18776;SDS011;9517;51.174;4.160;2023-06-26T00:23:42;13.67;;;4.53;;
18776;SDS011;9517;51.174;4.160;2023-06-26T00:26:09;10.40;;;4.00;;
18776;SDS011;9517;51.174;4.160;2023-06-26T00:28:36;11.93;;;3.90;;
18776;SDS011;9517;51.174;4.160;2023-06-26T00:31:03;11.37;;;4.23;;
18776;SDS011;9517;51.174;4.160;2023-06-26T00:33:32;12.70;;;4.33;;
18776;SDS011;9517;51.174;4.160;2023-06-26T00:35:59;11.33;;;4.20;;
18776;SDS011;9517;51.174;4.160;2023-06-26T00:38:26;13.70;;;4.10;;
18776;SDS011;9517;51.174;4.160;2023-06-26T00:40:53;10.50;;;4.27;;
18776;SDS011;9517;51.174;4.160;2023-06-26T00:43:21;11.37;;;4.37;;
18776;SDS011;9517;51.174;4.160;2023-06-26T00:45:48;11.87;;;4.17;;
18776;SDS011;9517;51.174;4.160;2023-06-26T00:48:15;10.23;;;3.93;;
18776;SDS011;9517;51.174;4.160;2023-06-26T00:50:44;10.13;;;3.87;;
18776;SDS011;9517;51.174;4.160;2023-06-26T00:53:11;11.93;;;4.10;;
18776;SDS011;9517;51.174;4.160;2023-06-26T00:55:42;11.67;;;4.20;;
18776;SDS011;9517;51.174;4.160;2023-06-26T00:58:09;9.87;;;3.73;;
18776;SDS011;9517;51.174;4.160;2023-06-26T01:00:36;14.70;;;4.83;;
18776;SDS011;9517;51.174;4.160;2023-06-26T01:03:03;12.90;;;4.20;;
18776;SDS011;9517;51.174;4.160;2023-06-26T01:05:31;10.63;;;4.23;;
18776;SDS011;9517;51.174;4.160;2023-06-26T01:07:59;11.63;;;4.23;;
18776;SDS011;9517;51.174;4.160;2023-06-26T01:10:27;12.70;;;4.30;;
18776;SDS011;9517;51.174;4.160;2023-06-26T01:12:54;13.17;;;4.57;;
18776;SDS011;9517;51.174;4.160;2023-06-26T01:15:23;14.60;;;4.90;;
18776;SDS011;9517;51.174;4.160;2023-06-26T01:17:50;10.60;;;4.47;;
18776;SDS011;9517;51.174;4.160;2023-06-26T01:20:28;13.73;;;4.37;;
18776;SDS011;9517;51.174;4.160;2023-06-26T01:22:56;10.27;;;4.47;;
18776;SDS011;9517;51.174;4.160;2023-06-26T01:25:35;14.97;;;4.80;;
18776;SDS011;9517;51.174;4.160;2023-06-26T01:28:10;12.87;;;4.80;;
18776;SDS011;9517;51.174;4.160;2023-06-26T01:30:41;13.13;;;4.33;;
18776;SDS011;9517;51.174;4.160;2023-06-26T01:33:11;16.13;;;5.23;;
18776;SDS011;9517;51.174;4.160;2023-06-26T01:35:40;16.20;;;4.90;;
18776;SDS011;9517;51.174;4.160;2023-06-26T01:38:11;15.07;;;4.50;;
18776;SDS011;9517;51.174;4.160;2023-06-26T01:40:42;15.40;;;4.70;;
18776;SDS011;9517;51.174;4.160;2023-06-26T01:43:14;15.57;;;5.20;;
18776;SDS011;9517;51.174;4.160;2023-06-26T01:45:45;18.83;;;5.50;;
18776;SDS011;9517;51.174;4.160;2023-06-26T01:48:14;11.93;;;4.90;;
18776;SDS011;9517;51.174;4.160;2023-06-26T01:50:46;17.23;;;5.43;;
18776;SDS011;9517;51.174;4.160;2023-06-26T01:53:17;13.67;;;4.87;;
18776;SDS011;9517;51.174;4.160;2023-06-26T01:55:50;16.17;;;4.97;;
18776;SDS011;9517;51.174;4.160;2023-06-26T01:58:22;13.93;;;4.70;;
18776;SDS011;9517;51.174;4.160;2023-06-26T02:00:51;13.33;;;4.93;;
18776;SDS011;9517;51.174;4.160;2023-06-26T02:03:19;12.57;;;4.57;;
18776;SDS011;9517;51.174;4.160;2023-06-26T02:05:49;16.50;;;4.87;;
18776;SDS011;9517;51.174;4.160;2023-06-26T02:08:16;14.20;;;5.07;;
18776;SDS011;9517;51.174;4.160;2023-06-26T02:10:45;13.77;;;5.33;;
18776;SDS011;9517;51.174;4.160;2023-06-26T02:13:11;17.23;;;5.27;;
18776;SDS011;9517;51.174;4.160;2023-06-26T02:15:43;15.70;;;5.43;;
18776;SDS011;9517;51.174;4.160;2023-06-26T02:18:10;15.73;;;5.10;;
18776;SDS011;9517;51.174;4.160;2023-06-26T02:20:37;16.57;;;4.97;;
18776;SDS011;9517;51.174;4.160;2023-06-26T02:23:05;21.30;;;5.50;;
18776;SDS011;9517;51.174;4.160;2023-06-26T02:25:32;18.03;;;6.03;;
18776;SDS011;9517;51.174;4.160;2023-06-26T02:27:59;14.30;;;5.27;;
18776;SDS011;9517;51.174;4.160;2023-06-26T02:30:26;19.30;;;5.20;;
18776;SDS011;9517;51.174;4.160;2023-06-26T02:32:55;19.27;;;5.60;;
18776;SDS011;9517;51.174;4.160;2023-06-26T02:35:22;14.70;;;4.63;;
18776;SDS011;9517;51.174;4.160;2023-06-26T02:37:49;16.60;;;5.33;;
18776;SDS011;9517;51.174;4.160;2023-06-26T02:40:16;18.00;;;5.30;;
18776;SDS011;9517;51.174;4.160;2023-06-26T02:42:43;19.13;;;5.23;;
18776;SDS011;9517;51.174;4.160;2023-06-26T02:45:10;19.20;;;5.67;;
18776;SDS011;9517;51.174;4.160;2023-06-26T02:47:37;16.40;;;5.40;;
18776;SDS011;9517;51.174;4.160;2023-06-26T02:50:09;15.57;;;6.00;;
18776;SDS011;9517;51.174;4.160;2023-06-26T02:52:36;22.30;;;6.30;;
18776;SDS011;9517;51.174;4.160;2023-06-26T02:55:06;19.13;;;5.90;;
18776;SDS011;9517;51.174;4.160;2023-06-26T02:57:33;17.33;;;6.70;;
18776;SDS011;9517;51.174;4.160;2023-06-26T03:00:01;22.13;;;6.07;;
18776;SDS011;9517;51.174;4.160;2023-06-26T03:02:28;21.93;;;6.90;;
18776;SDS011;9517;51.174;4.160;2023-06-26T03:04:55;23.27;;;5.97;;
18776;SDS011;9517;51.174;4.160;2023-06-26T03:07:24;22.27;;;6.07;;
18776;SDS011;9517;51.174;4.160;2023-06-26T03:09:52;20.73;;;6.30;;
18776;SDS011;9517;51.174;4.160;2023-06-26T03:12:19;19.23;;;6.93;;
18776;SDS011;9517;51.174;4.160;2023-06-26T03:14:46;22.33;;;6.30;;
18776;SDS011;9517;51.174;4.160;2023-06-26T03:17:13;22.67;;;6.40;;
18776;SDS011;9517;51.174;4.160;2023-06-26T03:19:40;22.53;;;6.67;;
18776;SDS011;9517;51.174;4.160;2023-06-26T03:22:07;20.53;;;6.27;;
18776;SDS011;9517;51.174;4.160;2023-06-26T03:24:36;24.77;;;6.53;;
18776;SDS011;9517;51.174;4.160;2023-06-26T03:27:03;18.47;;;5.80;;
18776;SDS011;9517;51.174;4.160;2023-06-26T03:29:31;18.70;;;6.10;;
18776;SDS011;9517;51.174;4.160;2023-06-26T03:31:58;25.50;;;6.30;;
18776;SDS011;9517;51.174;4.160;2023-06-26T03:34:25;21.80;;;7.13;;
18776;SDS011;9517;51.174;4.160;2023-06-26T03:36:52;21.63;;;5.67;;
18776;SDS011;9517;51.174;4.160;2023-06-26T03:39:20;18.83;;;6.30;;
18776;SDS011;9517;51.174;4.160;2023-06-26T03:41:48;23.37;;;7.23;;
18776;SDS011;9517;51.174;4.160;2023-06-26T03:44:16;23.63;;;6.87;;
18776;SDS011;9517;51.174;4.160;2023-06-26T03:46:43;22.80;;;6.93;;
18776;SDS011;9517;51.174;4.160;2023-06-26T03:49:10;24.23;;;6.63;;
18776;SDS011;9517;51.174;4.160;2023-06-26T03:51:37;23.33;;;6.63;;
18776;SDS011;9517;51.174;4.160;2023-06-26T03:54:06;23.10;;;6.17;;
18776;SDS011;9517;51.174;4.160;2023-06-26T03:56:33;23.83;;;6.50;;
18776;SDS011;9517;51.174;4.160;2023-06-26T03:59:02;20.77;;;6.37;;
18776;SDS011;9517;51.174;4.160;2023-06-26T04:01:29;20.10;;;6.87;;
18776;SDS011;9517;51.174;4.160;2023-06-26T04:03:56;22.13;;;6.33;;
18776;SDS011;9517;51.174;4.160;2023-06-26T04:06:23;22.13;;;6.97;;
18776;SDS011;9517;51.174;4.160;2023-06-26T04:08:50;28.47;;;7.13;;
18776;SDS011;9517;51.174;4.160;2023-06-26T04:11:17;22.53;;;6.93;;
18776;SDS011;9517;51.174;4.160;2023-06-26T04:13:45;22.17;;;6.40;;
18776;SDS011;9517;51.174;4.160;2023-06-26T04:16:13;19.87;;;6.13;;
18776;SDS011;9517;51.174;4.160;2023-06-26T04:18:41;26.10;;;6.30;;
18776;SDS011;9517;51.174;4.160;2023-06-26T04:21:08;26.13;;;6.60;;
18776;SDS011;9517;51.174;4.160;2023-06-26T04:23:37;24.90;;;7.37;;
18776;SDS011;9517;51.174;4.160;2023-06-26T04:26:04;24.13;;;6.50;;
18776;SDS011;9517;51.174;4.160;2023-06-26T04:28:32;22.60;;;6.63;;
18776;SDS011;9517;51.174;4.160;2023-06-26T04:30:59;21.70;;;6.07;;
18776;SDS011;9517;51.174;4.160;2023-06-26T04:33:29;23.67;;;6.53;;
18776;SDS011;9517;51.174;4.160;2023-06-26T04:35:57;22.77;;;6.70;;
18776;SDS011;9517;51.174;4.160;2023-06-26T04:38:28;25.73;;;6.90;;
18776;SDS011;9517;51.174;4.160;2023-06-26T04:40:55;22.70;;;7.10;;
18776;SDS011;9517;51.174;4.160;2023-06-26T04:43:23;20.70;;;6.33;;
18776;SDS011;9517;51.174;4.160;2023-06-26T04:45:50;26.90;;;6.70;;
18776;SDS011;9517;51.174;4.160;2023-06-26T04:48:17;24.80;;;6.63;;
18776;SDS011;9517;51.174;4.160;2023-06-26T04:50:46;25.47;;;6.80;;
18776;SDS011;9517;51.174;4.160;2023-06-26T04:53:18;17.93;;;5.50;;
18776;SDS011;9517;51.174;4.160;2023-06-26T04:55:46;22.57;;;6.17;;
18776;SDS011;9517;51.174;4.160;2023-06-26T04:58:13;27.57;;;5.77;;
18776;SDS011;9517;51.174;4.160;2023-06-26T05:00:40;22.43;;;6.47;;
18776;SDS011;9517;51.174;4.160;2023-06-26T05:03:08;21.83;;;5.80;;
18776;SDS011;9517;51.174;4.160;2023-06-26T05:05:35;21.30;;;6.17;;
18776;SDS011;9517;51.174;4.160;2023-06-26T05:10:47;25.33;;;5.60;;
18776;SDS011;9517;51.174;4.160;2023-06-26T05:13:14;21.80;;;5.97;;
18776;SDS011;9517;51.174;4.160;2023-06-26T05:15:43;26.67;;;6.23;;
18776;SDS011;9517;51.174;4.160;2023-06-26T05:18:10;21.00;;;5.83;;
18776;SDS011;9517;51.174;4.160;2023-06-26T05:20:37;25.43;;;6.50;;
18776;SDS011;9517;51.174;4.160;2023-06-26T05:23:05;25.43;;;6.13;;
18776;SDS011;9517;51.174;4.160;2023-06-26T05:25:34;28.07;;;5.67;;
18776;SDS011;9517;51.174;4.160;2023-06-26T05:28:01;21.27;;;5.97;;
18776;SDS011;9517;51.174;4.160;2023-06-26T05:30:30;16.80;;;4.27;;
18776;SDS011;9517;51.174;4.160;2023-06-26T05:33:00;20.60;;;4.67;;
18776;SDS011;9517;51.174;4.160;2023-06-26T05:35:28;19.97;;;4.20;;
18776;SDS011;9517;51.174;4.160;2023-06-26T05:37:57;16.23;;;4.00;;
18776;SDS011;9517;51.174;4.160;2023-06-26T05:40:25;17.40;;;4.37;;
18776;SDS011;9517;51.174;4.160;2023-06-26T05:42:54;15.60;;;4.03;;
18776;SDS011;9517;51.174;4.160;2023-06-26T05:45:22;16.43;;;3.40;;
18776;SDS011;9517;51.174;4.160;2023-06-26T05:47:49;20.07;;;3.87;;
18776;SDS011;9517;51.174;4.160;2023-06-26T05:50:17;19.87;;;3.97;;
18776;SDS011;9517;51.174;4.160;2023-06-26T05:52:46;14.67;;;3.03;;
18776;SDS011;9517;51.174;4.160;2023-06-26T05:55:13;16.30;;;4.03;;
18776;SDS011;9517;51.174;4.160;2023-06-26T05:57:41;16.23;;;2.87;;
18776;SDS011;9517;51.174;4.160;2023-06-26T06:00:10;16.57;;;2.93;;
18776;SDS011;9517;51.174;4.160;2023-06-26T06:02:38;13.40;;;2.77;;
18776;SDS011;9517;51.174;4.160;2023-06-26T06:05:06;12.47;;;2.40;;
18776;SDS011;9517;51.174;4.160;2023-06-26T06:07:34;8.97;;;1.70;;
18776;SDS011;9517;51.174;4.160;2023-06-26T06:10:02;13.27;;;2.60;;
18776;SDS011;9517;51.174;4.160;2023-06-26T06:12:30;11.70;;;2.43;;
18776;SDS011;9517;51.174;4.160;2023-06-26T06:14:57;10.83;;;2.30;;
18776;SDS011;9517;51.174;4.160;2023-06-26T06:17:26;10.20;;;1.87;;
18776;SDS011;9517;51.174;4.160;2023-06-26T06:19:53;14.43;;;2.70;;
18776;SDS011;9517;51.174;4.160;2023-06-26T06:22:20;10.27;;;1.73;;
18776;SDS011;9517;51.174;4.160;2023-06-26T06:24:50;14.90;;;2.13;;
18776;SDS011;9517;51.174;4.160;2023-06-26T06:27:17;8.00;;;1.40;;
18776;SDS011;9517;51.174;4.160;2023-06-26T06:29:44;12.20;;;2.00;;
18776;SDS011;9517;51.174;4.160;2023-06-26T06:32:11;7.80;;;1.50;;
18776;SDS011;9517;51.174;4.160;2023-06-26T06:34:40;7.53;;;1.53;;
18776;SDS011;9517;51.174;4.160;2023-06-26T06:37:07;7.93;;;1.43;;
18776;SDS011;9517;51.174;4.160;2023-06-26T06:39:34;10.40;;;1.90;;
18776;SDS011;9517;51.174;4.160;2023-06-26T06:42:01;10.73;;;1.83;;
18776;SDS011;9517;51.174;4.160;2023-06-26T06:44:28;13.63;;;1.83;;
18776;SDS011;9517;51.174;4.160;2023-06-26T06:46:56;8.20;;;1.27;;
18776;SDS011;9517;51.174;4.160;2023-06-26T06:49:23;11.63;;;1.93;;
18776;SDS011;9517;51.174;4.160;2023-06-26T06:51:52;8.30;;;1.60;;
18776;SDS011;9517;51.174;4.160;2023-06-26T06:54:19;10.13;;;1.80;;
18776;SDS011;9517;51.174;4.160;2023-06-26T06:56:46;7.20;;;1.80;;
18776;SDS011;9517;51.174;4.160;2023-06-26T06:59:13;8.20;;;1.63;;
18776;SDS011;9517;51.174;4.160;2023-06-26T07:01:40;8.03;;;1.73;;
18776;SDS011;9517;51.174;4.160;2023-06-26T07:04:07;7.80;;;1.70;;
18776;SDS011;9517;51.174;4.160;2023-06-26T07:06:34;6.20;;;1.60;;
18776;SDS011;9517;51.174;4.160;2023-06-26T07:09:03;9.03;;;1.40;;
18776;SDS011;9517;51.174;4.160;2023-06-26T07:11:31;9.40;;;1.60;;
18776;SDS011;9517;51.174;4.160;2023-06-26T07:13:58;6.50;;;1.30;;
18776;SDS011;9517;51.174;4.160;2023-06-26T07:16:25;11.93;;;2.03;;
18776;SDS011;9517;51.174;4.160;2023-06-26T07:18:52;5.90;;;1.30;;
18776;SDS011;9517;51.174;4.160;2023-06-26T07:21:19;9.30;;;1.50;;
18776;SDS011;9517;51.174;4.160;2023-06-26T07:23:47;9.20;;;1.63;;
18776;SDS011;9517;51.174;4.160;2023-06-26T07:26:15;8.60;;;1.60;;
18776;SDS011;9517;51.174;4.160;2023-06-26T07:28:43;14.37;;;1.40;;
18776;SDS011;9517;51.174;4.160;2023-06-26T07:31:10;10.13;;;1.83;;
18776;SDS011;9517;51.174;4.160;2023-06-26T07:33:37;9.93;;;1.67;;
18776;SDS011;9517;51.174;4.160;2023-06-26T07:36:04;6.87;;;1.50;;
18776;SDS011;9517;51.174;4.160;2023-06-26T07:38:31;8.70;;;1.30;;
18776;SDS011;9517;51.174;4.160;2023-06-26T07:40:59;9.63;;;1.90;;
18776;SDS011;9517;51.174;4.160;2023-06-26T07:43:27;8.67;;;1.80;;
18776;SDS011;9517;51.174;4.160;2023-06-26T07:45:54;8.30;;;1.30;;
18776;SDS011;9517;51.174;4.160;2023-06-26T07:48:23;11.37;;;1.53;;
18776;SDS011;9517;51.174;4.160;2023-06-26T07:50:50;5.17;;;1.03;;
18776;SDS011;9517;51.174;4.160;2023-06-26T07:53:18;9.07;;;1.63;;
18776;SDS011;9517;51.174;4.160;2023-06-26T07:55:46;8.80;;;2.17;;
18776;SDS011;9517;51.174;4.160;2023-06-26T07:58:13;8.63;;;1.33;;
18776;SDS011;9517;51.174;4.160;2023-06-26T08:00:41;7.10;;;1.40;;
18776;SDS011;9517;51.174;4.160;2023-06-26T08:03:08;8.27;;;1.33;;
18776;SDS011;9517;51.174;4.160;2023-06-26T08:05:35;8.47;;;1.50;;
18776;SDS011;9517;51.174;4.160;2023-06-26T08:08:02;8.67;;;1.50;;
18776;SDS011;9517;51.174;4.160;2023-06-26T08:10:30;12.70;;;1.60;;
18776;SDS011;9517;51.174;4.160;2023-06-26T08:12:57;8.20;;;1.57;;
18776;SDS011;9517;51.174;4.160;2023-06-26T08:15:24;8.17;;;1.60;;
18776;SDS011;9517;51.174;4.160;2023-06-26T08:17:52;11.80;;;1.70;;
18776;SDS011;9517;51.174;4.160;2023-06-26T08:20:19;7.03;;;1.47;;
18776;SDS011;9517;51.174;4.160;2023-06-26T08:22:47;7.93;;;1.70;;
18776;SDS011;9517;51.174;4.160;2023-06-26T08:25:16;9.03;;;1.60;;
18776;SDS011;9517;51.174;4.160;2023-06-26T08:27:50;6.53;;;1.37;;
18776;SDS011;9517;51.174;4.160;2023-06-26T08:30:20;8.37;;;1.20;;
18776;SDS011;9517;51.174;4.160;2023-06-26T08:32:50;8.07;;;1.57;;
18776;SDS011;9517;51.174;4.160;2023-06-26T08:35:18;7.90;;;1.57;;
18776;SDS011;9517;51.174;4.160;2023-06-26T08:37:45;11.13;;;2.07;;
18776;SDS011;9517;51.174;4.160;2023-06-26T08:40:13;10.67;;;2.17;;
18776;SDS011;9517;51.174;4.160;2023-06-26T08:42:43;6.93;;;1.83;;
18776;SDS011;9517;51.174;4.160;2023-06-26T08:45:11;7.13;;;1.60;;
18776;SDS011;9517;51.174;4.160;2023-06-26T08:47:39;7.90;;;1.60;;
18776;SDS011;9517;51.174;4.160;2023-06-26T08:50:10;10.00;;;1.57;;
18776;SDS011;9517;51.174;4.160;2023-06-26T08:52:43;8.13;;;1.60;;
18776;SDS011;9517;51.174;4.160;2023-06-26T08:55:16;9.57;;;1.77;;
18776;SDS011;9517;51.174;4.160;2023-06-26T08:57:47;8.77;;;1.83;;
18776;SDS011;9517;51.174;4.160;2023-06-26T09:00:14;7.50;;;1.47;;
18776;SDS011;9517;51.174;4.160;2023-06-26T09:02:42;6.23;;;1.60;;
18776;SDS011;9517;51.174;4.160;2023-06-26T09:05:10;8.70;;;1.67;;
18776;SDS011;9517;51.174;4.160;2023-06-26T09:07:37;7.67;;;1.50;;
18776;SDS011;9517;51.174;4.160;2023-06-26T09:10:07;7.93;;;1.80;;
18776;SDS011;9517;51.174;4.160;2023-06-26T09:12:34;10.10;;;1.90;;
18776;SDS011;9517;51.174;4.160;2023-06-26T09:15:03;9.57;;;1.70;;
18776;SDS011;9517;51.174;4.160;2023-06-26T09:17:33;10.23;;;1.77;;
18776;SDS011;9517;51.174;4.160;2023-06-26T09:20:05;8.97;;;1.50;;
18776;SDS011;9517;51.174;4.160;2023-06-26T09:22:36;7.07;;;1.83;;
18776;SDS011;9517;51.174;4.160;2023-06-26T09:25:08;6.70;;;1.43;;
18776;SDS011;9517;51.174;4.160;2023-06-26T09:27:36;12.37;;;2.23;;
18776;SDS011;9517;51.174;4.160;2023-06-26T09:30:03;8.73;;;1.63;;
18776;SDS011;9517;51.174;4.160;2023-06-26T09:32:33;5.97;;;1.50;;
18776;SDS011;9517;51.174;4.160;2023-06-26T09:35:01;8.33;;;1.70;;
18776;SDS011;9517;51.174;4.160;2023-06-26T09:37:29;9.10;;;1.37;;
18776;SDS011;9517;51.174;4.160;2023-06-26T09:39:56;8.73;;;1.40;;
18776;SDS011;9517;51.174;4.160;2023-06-26T09:42:25;9.27;;;1.70;;
18776;SDS011;9517;51.174;4.160;2023-06-26T09:44:53;5.87;;;1.10;;
18776;SDS011;9517;51.174;4.160;2023-06-26T09:47:20;8.23;;;1.40;;
18776;SDS011;9517;51.174;4.160;2023-06-26T09:49:47;7.80;;;1.60;;
18776;SDS011;9517;51.174;4.160;2023-06-26T09:52:15;6.30;;;1.43;;
18776;SDS011;9517;51.174;4.160;2023-06-26T09:54:43;4.97;;;1.30;;
18776;SDS011;9517;51.174;4.160;2023-06-26T09:57:11;14.13;;;1.50;;
18776;SDS011;9517;51.174;4.160;2023-06-26T09:59:41;8.30;;;1.33;;
18776;SDS011;9517;51.174;4.160;2023-06-26T10:02:10;6.20;;;1.30;;
18776;SDS011;9517;51.174;4.160;2023-06-26T10:04:38;5.67;;;1.37;;
18776;SDS011;9517;51.174;4.160;2023-06-26T10:07:06;6.60;;;1.40;;
18776;SDS011;9517;51.174;4.160;2023-06-26T10:09:35;7.37;;;1.20;;
18776;SDS011;9517;51.174;4.160;2023-06-26T10:12:09;6.33;;;1.43;;
18776;SDS011;9517;51.174;4.160;2023-06-26T10:14:44;5.63;;;1.20;;
18776;SDS011;9517;51.174;4.160;2023-06-26T10:17:14;7.73;;;1.47;;
18776;SDS011;9517;51.174;4.160;2023-06-26T10:19:44;5.33;;;1.07;;
18776;SDS011;9517;51.174;4.160;2023-06-26T10:22:11;5.67;;;1.30;;
18776;SDS011;9517;51.174;4.160;2023-06-26T10:24:41;9.93;;;1.70;;
18776;SDS011;9517;51.174;4.160;2023-06-26T10:27:15;5.80;;;1.23;;
18776;SDS011;9517;51.174;4.160;2023-06-26T10:29:45;5.13;;;1.20;;
18776;SDS011;9517;51.174;4.160;2023-06-26T10:32:16;7.77;;;1.90;;
18776;SDS011;9517;51.174;4.160;2023-06-26T10:34:44;5.63;;;1.30;;
18776;SDS011;9517;51.174;4.160;2023-06-26T10:37:11;10.87;;;1.63;;
18776;SDS011;9517;51.174;4.160;2023-06-26T10:39:48;7.80;;;1.50;;
18776;SDS011;9517;51.174;4.160;2023-06-26T10:42:16;6.28;;;1.30;;
18776;SDS011;9517;51.174;4.160;2023-06-26T10:44:46;7.93;;;1.40;;
18776;SDS011;9517;51.174;4.160;2023-06-26T10:47:28;8.60;;;1.75;;
18776;SDS011;9517;51.174;4.160;2023-06-26T10:49:57;7.38;;;1.42;;
18776;SDS011;9517;51.174;4.160;2023-06-26T10:52:44;4.35;;;1.05;;
18776;SDS011;9517;51.174;4.160;2023-06-26T10:55:13;7.20;;;1.60;;
18776;SDS011;9517;51.174;4.160;2023-06-26T10:57:44;5.47;;;1.20;;
18776;SDS011;9517;51.174;4.160;2023-06-26T11:00:16;5.87;;;1.23;;
18776;SDS011;9517;51.174;4.160;2023-06-26T11:02:47;9.93;;;1.67;;
18776;SDS011;9517;51.174;4.160;2023-06-26T11:05:23;4.60;;;1.13;;
18776;SDS011;9517;51.174;4.160;2023-06-26T11:08:05;5.33;;;1.40;;
18776;SDS011;9517;51.174;4.160;2023-06-26T11:13:20;6.03;;;1.03;;
18776;SDS011;9517;51.174;4.160;2023-06-26T11:15:49;5.93;;;1.17;;
18776;SDS011;9517;51.174;4.160;2023-06-26T11:18:17;9.27;;;1.70;;
18776;SDS011;9517;51.174;4.160;2023-06-26T11:20:44;8.17;;;1.27;;
18776;SDS011;9517;51.174;4.160;2023-06-26T11:23:11;5.13;;;1.40;;
18776;SDS011;9517;51.174;4.160;2023-06-26T11:25:41;10.25;;;1.90;;
18776;SDS011;9517;51.174;4.160;2023-06-26T11:28:09;5.90;;;1.10;;
18776;SDS011;9517;51.174;4.160;2023-06-26T11:30:37;7.57;;;1.52;;
18776;SDS011;9517;51.174;4.160;2023-06-26T11:33:08;8.80;;;1.80;;
18776;SDS011;9517;51.174;4.160;2023-06-26T11:35:36;6.47;;;1.55;;
18776;SDS011;9517;51.174;4.160;2023-06-26T11:38:03;6.60;;;1.38;;
18776;SDS011;9517;51.174;4.160;2023-06-26T11:40:31;11.25;;;1.70;;
18776;SDS011;9517;51.174;4.160;2023-06-26T11:42:59;8.93;;;1.60;;
18776;SDS011;9517;51.174;4.160;2023-06-26T11:45:28;11.25;;;1.65;;
18776;SDS011;9517;51.174;4.160;2023-06-26T11:47:56;7.57;;;1.60;;
18776;SDS011;9517;51.174;4.160;2023-06-26T11:50:25;7.68;;;1.90;;
18776;SDS011;9517;51.174;4.160;2023-06-26T11:52:52;6.93;;;1.42;;
18776;SDS011;9517;51.174;4.160;2023-06-26T11:55:20;5.63;;;1.30;;
18776;SDS011;9517;51.174;4.160;2023-06-26T11:57:48;5.78;;;1.25;;
18776;SDS011;9517;51.174;4.160;2023-06-26T12:00:16;8.15;;;2.13;;
18776;SDS011;9517;51.174;4.160;2023-06-26T12:02:44;8.15;;;1.65;;
18776;SDS011;9517;51.174;4.160;2023-06-26T12:05:12;6.82;;;1.52;;
18776;SDS011;9517;51.174;4.160;2023-06-26T12:07:42;7.07;;;1.60;;
18776;SDS011;9517;51.174;4.160;2023-06-26T12:10:10;9.10;;;1.83;;
18776;SDS011;9517;51.174;4.160;2023-06-26T12:12:38;9.35;;;1.52;;
18776;SDS011;9517;51.174;4.160;2023-06-26T12:15:07;6.80;;;1.40;;
18776;SDS011;9517;51.174;4.160;2023-06-26T12:17:37;6.15;;;1.50;;
18776;SDS011;9517;51.174;4.160;2023-06-26T12:20:06;6.55;;;1.52;;
18776;SDS011;9517;51.174;4.160;2023-06-26T12:22:46;8.77;;;1.73;;
18776;SDS011;9517;51.174;4.160;2023-06-26T12:25:13;5.88;;;1.45;;
18776;SDS011;9517;51.174;4.160;2023-06-26T12:27:41;12.05;;;1.60;;
18776;SDS011;9517;51.174;4.160;2023-06-26T12:30:11;6.80;;;1.40;;
18776;SDS011;9517;51.174;4.160;2023-06-26T12:32:38;5.50;;;1.20;;
18776;SDS011;9517;51.174;4.160;2023-06-26T12:35:06;10.57;;;1.55;;
18776;SDS011;9517;51.174;4.160;2023-06-26T12:37:36;4.30;;;1.08;;
18776;SDS011;9517;51.174;4.160;2023-06-26T12:40:09;7.13;;;1.50;;
18776;SDS011;9517;51.174;4.160;2023-06-26T12:42:44;10.93;;;2.17;;
18776;SDS011;9517;51.174;4.160;2023-06-26T12:45:12;5.72;;;2.00;;
18776;SDS011;9517;51.174;4.160;2023-06-26T12:47:40;7.88;;;1.52;;
18776;SDS011;9517;51.174;4.160;2023-06-26T12:50:08;5.35;;;1.40;;
18776;SDS011;9517;51.174;4.160;2023-06-26T12:52:35;8.23;;;1.38;;
18776;SDS011;9517;51.174;4.160;2023-06-26T12:55:02;7.68;;;1.60;;
18776;SDS011;9517;51.174;4.160;2023-06-26T12:57:32;8.70;;;1.50;;
18776;SDS011;9517;51.174;4.160;2023-06-26T12:59:59;10.25;;;1.73;;
18776;SDS011;9517;51.174;4.160;2023-06-26T13:02:27;6.82;;;1.60;;
18776;SDS011;9517;51.174;4.160;2023-06-26T13:04:54;7.93;;;1.55;;
18776;SDS011;9517;51.174;4.160;2023-06-26T13:07:21;9.43;;;1.95;;
18776;SDS011;9517;51.174;4.160;2023-06-26T13:09:50;9.02;;;1.50;;
18776;SDS011;9517;51.174;4.160;2023-06-26T13:12:17;4.50;;;1.17;;
18776;SDS011;9517;51.174;4.160;2023-06-26T13:14:46;4.75;;;1.30;;
18776;SDS011;9517;51.174;4.160;2023-06-26T13:17:13;5.97;;;1.52;;
18776;SDS011;9517;51.174;4.160;2023-06-26T13:19:40;4.40;;;1.20;;
18776;SDS011;9517;51.174;4.160;2023-06-26T13:22:08;6.05;;;1.30;;
18776;SDS011;9517;51.174;4.160;2023-06-26T13:24:35;8.63;;;1.83;;
18776;SDS011;9517;51.174;4.160;2023-06-26T13:27:02;9.90;;;1.60;;
18776;SDS011;9517;51.174;4.160;2023-06-26T13:29:31;8.23;;;1.80;;
18776;SDS011;9517;51.174;4.160;2023-06-26T13:31:59;8.63;;;1.48;;
18776;SDS011;9517;51.174;4.160;2023-06-26T13:34:27;5.45;;;1.20;;
18776;SDS011;9517;51.174;4.160;2023-06-26T13:36:55;5.28;;;1.13;;
18776;SDS011;9517;51.174;4.160;2023-06-26T13:39:24;8.05;;;1.48;;
18776;SDS011;9517;51.174;4.160;2023-06-26T13:41:52;9.73;;;1.60;;
18776;SDS011;9517;51.174;4.160;2023-06-26T13:44:19;5.65;;;1.40;;
18776;SDS011;9517;51.174;4.160;2023-06-26T13:46:46;7.07;;;1.67;;
18776;SDS011;9517;51.174;4.160;2023-06-26T13:49:14;8.77;;;1.40;;
18776;SDS011;9517;51.174;4.160;2023-06-26T13:51:41;6.07;;;1.30;;
18776;SDS011;9517;51.174;4.160;2023-06-26T13:54:12;8.02;;;1.70;;
18776;SDS011;9517;51.174;4.160;2023-06-26T13:56:39;11.23;;;2.00;;
18776;SDS011;9517;51.174;4.160;2023-06-26T13:59:06;13.73;;;1.80;;
18776;SDS011;9517;51.174;4.160;2023-06-26T14:01:33;7.57;;;1.80;;
18776;SDS011;9517;51.174;4.160;2023-06-26T14:04:00;8.35;;;1.70;;
18776;SDS011;9517;51.174;4.160;2023-06-26T14:06:28;7.95;;;1.58;;
18776;SDS011;9517;51.174;4.160;2023-06-26T14:08:57;10.02;;;2.05;;
18776;SDS011;9517;51.174;4.160;2023-06-26T14:11:25;10.60;;;2.30;;
18776;SDS011;9517;51.174;4.160;2023-06-26T14:13:52;10.90;;;2.10;;
18776;SDS011;9517;51.174;4.160;2023-06-26T14:16:19;11.77;;;2.10;;
18776;SDS011;9517;51.174;4.160;2023-06-26T14:18:46;8.30;;;1.70;;
18776;SDS011;9517;51.174;4.160;2023-06-26T14:21:15;10.20;;;2.13;;
18776;SDS011;9517;51.174;4.160;2023-06-26T14:23:43;8.90;;;2.13;;
18776;SDS011;9517;51.174;4.160;2023-06-26T14:26:10;15.88;;;2.22;;
18776;SDS011;9517;51.174;4.160;2023-06-26T14:28:37;9.45;;;2.38;;
18776;SDS011;9517;51.174;4.160;2023-06-26T14:31:04;10.60;;;2.35;;
18776;SDS011;9517;51.174;4.160;2023-06-26T14:33:32;8.68;;;2.00;;
18776;SDS011;9517;51.174;4.160;2023-06-26T14:35:59;4.80;;;1.58;;
18776;SDS011;9517;51.174;4.160;2023-06-26T14:38:26;9.52;;;1.90;;
18776;SDS011;9517;51.174;4.160;2023-06-26T14:40:54;10.15;;;1.63;;
18776;SDS011;9517;51.174;4.160;2023-06-26T14:43:21;9.70;;;1.45;;
18776;SDS011;9517;51.174;4.160;2023-06-26T14:45:49;5.63;;;1.55;;
18776;SDS011;9517;51.174;4.160;2023-06-26T14:48:16;6.97;;;1.55;;
18776;SDS011;9517;51.174;4.160;2023-06-26T14:50:44;9.48;;;2.00;;
18776;SDS011;9517;51.174;4.160;2023-06-26T14:53:11;8.52;;;1.73;;
18776;SDS011;9517;51.174;4.160;2023-06-26T14:55:39;7.78;;;1.70;;
18776;SDS011;9517;51.174;4.160;2023-06-26T14:58:08;10.95;;;1.90;;
18776;SDS011;9517;51.174;4.160;2023-06-26T15:00:38;5.95;;;1.38;;
18776;SDS011;9517;51.174;4.160;2023-06-26T15:07:17;8.40;;;1.63;;
18776;SDS011;9517;51.174;4.160;2023-06-26T15:09:38;8.07;;;1.90;;
18776;SDS011;9517;51.174;4.160;2023-06-26T15:12:36;6.88;;;1.50;;